Accueil
METAR-TAF:

METAR-TAF

Aéroports :

Kanoya, Japon

latitude: 31-22N, longitude: 130-50E, altitude: 65 m

Observation

Le bulletin a été fait il y a 13 heures et 15 minutes, à 07:42 UTC
Vent 6 kt de nord-ouest
Température 15°C
Humidité 55%
Pression 1022 hPa
Visibilité 10 km ou plus
Quelques nuages à une hauteur de 3000 ft
Nuages fragmentés à une hauteur de 4000 ft

METAR: RJFY 270742Z 31006KT 9999 FEW030 BKN040 15/06 Q1022 RMK 1CU030 6SC040 A3020

Heure: 05:57 (20:57 UTC)


TAF: absent

Observations et prévisions météorologiques de plus de 4000 aéroports (messages METAR et TAF).

Les stations disponibles sont représentées par des disques jaunes et rouges sur la carte.

Passer la souris dessus pour voir le nom de la station.

Cliquer dessus pour voir les observations et prévisions météorologiques.

Pour changer de carte: cliquez sur les boutons verts avec une croix noire pour zoomer, sur le bouton vert avec un tiret pour effectuer un zoom arrière, ou sur les flèches vertes pour les cartes adjacentes.


METAR-TAF: